الصفحة الرئيسية
METAR-TAF:

METAR-TAF

مطار :

سكاكا, السعودية

مطار الجوف المحلي

دائرة عرض: 29-47N, خط طول: 040-06E, ارتفاع: 689 متر

مراقبة الطقس الحالي

تاريخ ووقت الإصدار 1ساعة و 4 دقيقة قبل الساعة 23:00UTC
ريح 3 عقدة من الشمال الشرقي
درجة الحرارة 11°درجة مئوية
الرطوبة 82%
ضغط 1015 hPa
الرؤية 10 كم أو أكثر
الغيوم لا تقل 1500 م ولا وجود لمزنة ركامية السحاب الأسود

METAR: OESK 242300Z 04003KT CAVOK 11/08 Q1015 NOSIG

زمن: 03:04 (00:04 UTC)

توقعات

تاريخ ووقت الإصدار 1ساعة و 4 دقيقة قبل الساعة 23:00UTC
التوقعات صالحة من25 الساعة 00 UTC إلى 26 الساعة 06 UTC
ريح 12 عقدة من الشمال
الرؤية: 7000 متر
غيوم متفرقة على ارتفاع 4000 قدم
مؤقت
من 25 الساعة 00 UTC إلى 25 الساعة 05 UTC
الرؤية: 3000 متر
غشاء

TAF: OESK 242300Z 2500/2606 36012KT 7000 SCT040 TEMPO 2500/2505 3000 BR

أرصاد الطقس والتوقعات من أكثر من 4000 مطار (تقارير الطقس للمطار METAR والتنبؤ بالطقس بالمطارTAF).

المحطات المتاحة هي النقط الصفراء والحمراء على الخريطة.

حرك المؤشر فوق النقطة لمعرفة اسم المحطة.

ثم انقر لمعرفة أرصاد وتوقعات الطقس.

لتغيير الخارطة: اضغط على الأزرار الخضراء مع رمز الصليب الأسود للتكبير. على الزر الأخضر مع شرطة للتصغير، أو على الأسهم الخضراء للخرائط المجاورة.


METAR-TAF: